Time;durP1;ratioP1;P1;durP2;ratioP2;P2;SDS_P1;SDS_P2;PMS_P1;PMS_P2;Temp;Humidity;BMP_temperature;BMP_pressure;BME280_temperature;BME280_humidity;BME280_pressure;Samples;Min_cycle;Max_cycle;Signal;HPM_P1;HPM_P2
2023/11/05 00:00:35;;;;;;;4.03;2.67;;;;;;;11.11;100.00;101501.72;5021466;28;20029;-71
2023/11/05 00:03:01;;;;;;;3.83;2.60;;;;;;;11.00;100.00;101495.84;5011454;28;20441;-73
2023/11/05 00:05:26;;;;;;;5.50;2.78;;;;;;;11.24;100.00;101552.56;5025754;28;20037;-72
2023/11/05 00:07:52;;;;;;;3.97;2.60;;;;;;;10.91;100.00;101516.25;5013116;28;20121;-72
2023/11/05 00:10:17;;;;;;;3.95;2.60;;;;;;;10.80;100.00;101511.19;5021611;28;20105;-73
2023/11/05 00:12:43;;;;;;;4.60;3.00;;;;;;;10.81;100.00;101515.44;5011587;28;20033;-72
2023/11/05 00:15:09;;;;;;;3.20;2.90;;;;;;;10.54;100.00;101502.00;5024715;28;20128;-72
2023/11/05 00:17:35;;;;;;;4.68;3.28;;;;;;;11.07;100.00;101581.50;5020096;28;20034;-72
2023/11/05 00:20:06;;;;;;;4.63;3.30;;;;;;;10.90;100.00;101537.44;5024312;28;20033;-73
2023/11/05 00:22:32;;;;;;;4.47;3.40;;;;;;;10.64;100.00;101517.19;5014784;28;20030;-73
2023/11/05 00:24:57;;;;;;;3.72;3.20;;;;;;;10.67;100.00;101519.75;5019764;28;20037;-73
2023/11/05 00:27:22;;;;;;;6.88;3.47;;;;;;;10.94;100.00;101565.41;5019874;28;20029;-72
2023/11/05 00:29:48;;;;;;;3.60;2.80;;;;;;;10.61;100.00;101527.38;5024530;28;20043;-72
2023/11/05 00:32:13;;;;;;;3.80;2.80;;;;;;;10.94;100.00;101584.91;5021605;28;20477;-73
2023/11/05 00:34:39;;;;;;;4.25;2.78;;;;;;;10.39;100.00;101520.66;5011678;28;20033;-73
2023/11/05 00:37:04;;;;;;;3.90;2.88;;;;;;;10.90;100.00;101603.59;5020621;28;20064;-73
2023/11/05 00:39:31;;;;;;;5.97;3.08;;;;;;;10.99;100.00;101609.50;5011014;28;20099;-72
2023/11/05 00:41:56;;;;;;;4.85;2.80;;;;;;;10.85;100.00;101595.16;5012328;28;20481;-73
2023/11/05 00:44:21;;;;;;;4.63;3.10;;;;;;;10.83;100.00;101587.53;5019817;28;20033;-73
2023/11/05 00:46:47;;;;;;;5.63;2.95;;;;;;;11.08;100.00;101626.44;5022343;28;20036;-73
2023/11/05 00:49:13;;;;;;;5.88;3.08;;;;;;;11.04;100.00;101612.03;5018499;28;21888;-73
2023/11/05 00:51:39;;;;;;;4.45;3.20;;;;;;;10.91;100.00;101615.47;5010379;28;20034;-72
2023/11/05 00:54:05;;;;;;;4.85;3.55;;;;;;;10.12;100.00;101519.00;5020727;28;20026;-72
2023/11/05 00:56:30;;;;;;;4.28;3.88;;;;;;;11.04;100.00;101619.66;5015395;28;20100;-73
2023/11/05 00:58:55;;;;;;;5.70;3.83;;;;;;;10.95;100.00;101638.34;5009392;28;20104;-72
2023/11/05 01:01:21;;;;;;;5.70;3.67;;;;;;;10.71;100.00;101618.06;5008806;28;21425;-72
2023/11/05 01:03:46;;;;;;;4.40;4.00;;;;;;;10.74;100.00;101607.88;5021378;28;20026;-72
2023/11/05 01:06:12;;;;;;;4.60;3.80;;;;;;;10.55;100.00;101590.97;5018401;28;20033;-72
2023/11/05 01:08:37;;;;;;;7.70;4.03;;;;;;;10.80;100.00;101648.56;5018771;28;20038;-72
2023/11/05 01:11:03;;;;;;;3.80;3.35;;;;;;;10.66;100.00;101635.03;5023576;28;20033;-72
2023/11/05 01:13:29;;;;;;;6.57;4.22;;;;;;;10.23;100.00;101608.81;5021430;28;20473;-75
2023/11/05 01:15:54;;;;;;;4.80;3.60;;;;;;;10.22;100.00;101596.09;5009002;28;20408;-73
2023/11/05 01:18:19;;;;;;;7.97;3.60;;;;;;;10.16;100.00;101589.31;5019785;28;20091;-73
2023/11/05 01:20:45;;;;;;;5.13;3.95;;;;;;;10.52;100.00;101646.91;5020780;28;20040;-72
2023/11/05 01:23:10;;;;;;;3.90;3.40;;;;;;;10.24;100.00;101600.31;5022073;28;20032;-73
2023/11/05 01:25:35;;;;;;;4.68;3.58;;;;;;;10.06;100.00;101595.19;5011557;28;20163;-73
2023/11/05 01:28:01;;;;;;;8.70;3.63;;;;;;;10.16;100.00;101622.34;5020913;28;20040;-73
2023/11/05 01:30:26;;;;;;;4.35;3.38;;;;;;;10.07;100.00;101604.53;5018548;28;20030;-72
2023/11/05 01:32:52;;;;;;;4.13;3.40;;;;;;;10.17;100.00;101654.56;5022420;28;20040;-73
2023/11/05 01:35:17;;;;;;;5.95;3.92;;;;;;;9.83;100.00;101563.88;5017736;28;20026;-72
2023/11/05 01:37:43;;;;;;;5.40;3.72;;;;;;;10.05;100.00;101611.31;5021262;28;20488;-73
2023/11/05 01:40:08;;;;;;;7.30;3.88;;;;;;;10.50;100.00;101675.75;5020126;28;20034;-72
2023/11/05 01:42:34;;;;;;;5.95;4.28;;;;;;;10.25;100.00;101652.88;5010712;28;21969;-72
2023/11/05 01:44:59;;;;;;;6.40;4.15;;;;;;;9.98;100.00;101606.22;5018432;28;20021;-72
2023/11/05 01:47:25;;;;;;;5.10;4.30;;;;;;;9.87;100.00;101593.50;5019244;28;20061;-73
2023/11/05 01:49:51;;;;;;;6.20;4.13;;;;;;;9.55;100.00;101529.13;5017023;28;20508;-72
2023/11/05 01:52:18;;;;;;;7.40;4.45;;;;;;;9.93;100.00;101580.81;5017701;28;20034;-71
2023/11/05 01:54:43;;;;;;;5.18;4.28;;;;;;;9.87;100.00;101582.50;5019744;28;20034;-71
2023/11/05 01:57:09;;;;;;;6.35;4.30;;;;;;;9.62;100.00;101574.03;5013609;28;20026;-72
2023/11/05 01:59:35;;;;;;;5.40;4.50;;;;;;;10.02;100.00;101649.41;5016588;28;20113;-73
2023/11/05 02:02:01;;;;;;;6.53;3.83;;;;;;;9.86;100.00;101596.06;5010607;28;20033;-72
2023/11/05 02:04:27;;;;;;;7.70;4.55;;;;;;;9.79;100.00;101572.34;5023059;28;20033;-72
2023/11/05 02:06:53;;;;;;;5.47;4.28;;;;;;;10.04;100.00;101584.19;5017974;28;20080;-73
2023/11/05 02:09:18;;;;;;;7.55;4.47;;;;;;;9.73;100.00;101589.25;5008394;28;20029;-72
2023/11/05 02:11:44;;;;;;;5.75;4.63;;;;;;;10.45;100.00;101673.19;5021384;28;20041;-73
2023/11/05 02:14:13;;;;;;;9.00;4.90;;;;;;;10.07;100.00;101617.25;5013694;28;20041;-72
2023/11/05 02:16:39;;;;;;;5.82;4.95;;;;;;;10.19;100.00;101664.72;5011056;28;20492;-73
2023/11/05 02:19:06;;;;;;;7.40;5.03;;;;;;;9.86;100.00;101608.75;5014956;28;20030;-73
2023/11/05 02:21:41;;;;;;;6.35;4.70;;;;;;;9.16;100.00;101578.13;5017483;28;20061;-73
2023/11/05 02:24:06;;;;;;;7.68;5.28;;;;;;;9.60;100.00;101579.09;5018902;28;20022;-73
2023/11/05 02:26:32;;;;;;;8.68;5.38;;;;;;;9.44;100.00;101640.84;5018147;28;20087;-72
2023/11/05 02:28:58;;;;;;;7.35;4.88;;;;;;;9.56;100.00;101634.94;5018184;28;20045;-73
2023/11/05 02:31:23;;;;;;;5.65;4.75;;;;;;;9.60;100.00;101560.47;5017239;28;20029;-72
2023/11/05 02:33:49;;;;;;;5.68;4.85;;;;;;;9.40;100.00;101550.28;5019864;28;20037;-73
2023/11/05 02:36:15;;;;;;;6.97;4.70;;;;;;;9.75;100.00;101601.13;5015458;28;20109;-73
2023/11/05 02:38:40;;;;;;;7.38;4.63;;;;;;;9.43;100.00;101539.28;5008989;28;20064;-73
2023/11/05 02:41:10;;;;;;;7.72;4.78;;;;;;;9.41;100.00;101535.88;5018876;28;20038;-73
2023/11/05 02:43:35;;;;;;;7.30;4.80;;;;;;;9.65;100.00;101585.88;5005330;28;20033;-72
2023/11/05 02:46:01;;;;;;;5.03;4.53;;;;;;;9.67;100.00;101539.31;5008245;28;20084;-73
2023/11/05 02:48:26;;;;;;;6.88;4.63;;;;;;;9.52;100.00;101544.38;5018037;28;20034;-73
2023/11/05 02:50:52;;;;;;;6.47;4.88;;;;;;;9.80;100.00;101588.44;5018973;28;20032;-73
2023/11/05 02:53:18;;;;;;;8.35;4.97;;;;;;;9.98;100.00;101624.00;5019527;28;20026;-72
2023/11/05 02:55:44;;;;;;;8.13;4.80;;;;;;;9.66;100.00;101602.78;5008761;28;20040;-72
2023/11/05 02:58:13;;;;;;;6.63;5.00;;;;;;;9.68;100.00;101581.66;5021153;28;20021;-73
2023/11/05 03:00:39;;;;;;;5.90;4.95;;;;;;;9.32;100.00;101525.72;5007066;28;20034;-73
2023/11/05 03:03:04;;;;;;;5.60;4.60;;;;;;;9.49;100.00;101562.13;5009141;28;20503;-73
2023/11/05 03:05:30;;;;;;;6.70;4.78;;;;;;;9.57;100.00;101596.00;5020723;28;20034;-72
2023/11/05 03:07:55;;;;;;;6.03;4.90;;;;;;;9.38;100.00;101540.97;5015996;28;20045;-74
2023/11/05 03:10:20;;;;;;;6.40;4.90;;;;;;;9.81;100.00;101605.34;5017578;28;21334;-72
2023/11/05 03:12:46;;;;;;;5.43;4.85;;;;;;;9.61;100.00;101549.47;5015792;28;20536;-72
2023/11/05 03:15:11;;;;;;;6.72;5.03;;;;;;;9.60;100.00;101588.41;5005935;28;20049;-72
2023/11/05 03:17:37;;;;;;;8.27;5.35;;;;;;;9.41;100.00;101566.34;5019748;28;20504;-71
2023/11/05 03:20:06;;;;;;;5.45;4.45;;;;;;;9.76;100.00;101585.03;5022641;28;20037;-72
2023/11/05 03:22:36;;;;;;;7.28;5.30;;;;;;;9.18;100.00;101513.00;5019591;28;20030;-73
2023/11/05 03:25:05;;;;;;;5.63;4.57;;;;;;;9.71;100.00;101589.25;5024009;28;20117;-73
2023/11/05 03:27:31;;;;;;;6.13;4.45;;;;;;;9.19;100.00;101518.94;5022509;28;20038;-74
2023/11/05 03:29:57;;;;;;;5.40;4.57;;;;;;;9.90;100.00;101591.00;5022407;28;20029;-72
2023/11/05 03:32:22;;;;;;;5.63;4.78;;;;;;;9.69;100.00;101611.25;5011973;28;20037;-72
2023/11/05 03:34:48;;;;;;;9.88;5.43;;;;;;;9.69;100.00;101636.66;5025833;28;20026;-72
2023/11/05 03:37:14;;;;;;;7.32;5.05;;;;;;;9.60;100.00;101654.41;5020695;28;20096;-72
2023/11/05 03:39:40;;;;;;;6.55;5.47;;;;;;;9.46;100.00;101640.81;5020503;28;20045;-72
2023/11/05 03:42:07;;;;;;;7.38;5.45;;;;;;;9.29;100.00;101650.09;5017894;28;20098;-72
2023/11/05 03:44:34;;;;;;;8.65;5.53;;;;;;;9.48;100.00;101646.75;5022999;28;20029;-73
2023/11/05 03:46:59;;;;;;;13.63;10.13;;;;;;;9.03;100.00;101563.69;5014753;28;20033;-73
2023/11/05 03:49:25;;;;;;;15.27;12.40;;;;;;;9.33;100.00;101606.09;5013531;28;20561;-72
2023/11/05 03:51:50;;;;;;;9.95;7.93;;;;;;;8.96;100.00;101543.38;5024890;28;20430;-72
2023/11/05 03:54:16;;;;;;;8.15;6.30;;;;;;;9.43;100.00;101605.25;5020655;28;20060;-73
2023/11/05 03:56:42;;;;;;;7.88;5.75;;;;;;;8.94;100.00;101557.72;5024222;28;20052;-73
2023/11/05 03:59:08;;;;;;;9.63;7.10;;;;;;;9.06;100.00;101553.56;5023475;28;20049;-73
2023/11/05 04:01:33;;;;;;;7.40;6.60;;;;;;;8.99;100.00;101586.50;5021263;28;20057;-71
2023/11/05 04:03:59;;;;;;;9.23;3.13;;;;;;;11.81;100.00;101622.72;5019068;28;20111;-72
2023/11/05 04:06:24;;;;;;;8.50;6.85;;;;;;;9.60;100.00;101613.78;5019502;28;20025;-71
2023/11/05 04:08:50;;;;;;;8.82;6.55;;;;;;;8.68;100.00;101517.91;5016702;28;20036;-73
2023/11/05 04:11:15;;;;;;;8.80;6.60;;;;;;;9.07;100.00;101574.72;5015471;28;20030;-75
2023/11/05 04:13:47;;;;;;;7.90;6.90;;;;;;;9.18;100.00;101595.88;5025046;28;20049;-73
2023/11/05 04:16:14;;;;;;;9.57;6.43;;;;;;;8.85;100.00;101523.06;5016521;28;20515;-72
2023/11/05 04:18:41;;;;;;;7.00;6.05;;;;;;;8.58;100.00;101512.78;5016476;28;20037;-73
2023/11/05 04:21:06;;;;;;;7.05;5.32;;;;;;;8.77;100.00;101559.34;5008599;28;20041;-73
2023/11/05 04:23:32;;;;;;;8.10;4.85;;;;;;;8.69;100.00;101529.72;5022512;28;20030;-72
2023/11/05 04:25:58;;;;;;;8.68;5.32;;;;;;;9.04;100.00;101605.13;5021261;28;20022;-73
2023/11/05 04:28:23;;;;;;;6.53;5.10;;;;;;;8.45;100.00;101509.34;5011547;28;20037;-75
2023/11/05 04:30:49;;;;;;;6.65;5.00;;;;;;;8.45;100.00;101501.75;5019389;28;20040;-73
2023/11/05 04:33:14;;;;;;;7.00;5.30;;;;;;;8.32;100.00;101486.47;5010880;28;20040;-73
2023/11/05 04:35:40;;;;;;;8.05;5.38;;;;;;;8.56;100.00;101509.38;5018254;28;20519;-74
2023/11/05 04:38:05;;;;;;;7.25;5.30;;;;;;;8.23;100.00;101522.69;5021235;28;20032;-73
2023/11/05 04:40:30;;;;;;;6.10;4.90;;;;;;;8.44;100.00;101527.91;5021160;28;20403;-74
2023/11/05 04:42:56;;;;;;;6.97;4.57;;;;;;;9.52;100.00;101572.31;5020029;28;20035;-77
2023/11/05 04:45:21;;;;;;;7.15;4.88;;;;;;;9.61;100.00;101549.47;5022357;28;20034;-72
2023/11/05 04:47:47;;;;;;;23.25;6.03;;;;;;;8.89;100.00;101605.91;5017413;28;20480;-72
2023/11/05 04:50:13;;;;;;;44.33;29.65;;;;;;;9.12;100.00;101583.16;5010586;28;20034;-73
2023/11/05 04:52:38;;;;;;;37.80;24.92;;;;;;;8.38;100.00;101524.47;5016656;28;20530;-72
2023/11/05 04:55:05;;;;;;;27.05;17.17;;;;;;;8.81;100.00;101574.59;5016306;28;20084;-73
2023/11/05 04:57:31;;;;;;;33.05;20.08;;;;;;;8.72;100.00;101550.03;5019194;28;20050;-72
2023/11/05 04:59:56;;;;;;;23.60;15.05;;;;;;;8.55;100.00;101560.94;5015635;28;20519;-72
2023/11/05 05:02:22;;;;;;;19.77;13.98;;;;;;;8.81;100.00;101627.84;5016948;28;20034;-73
2023/11/05 05:04:47;;;;;;;23.58;15.73;;;;;;;8.48;100.00;101560.03;5008928;28;20025;-72
2023/11/05 05:07:14;;;;;;;23.13;17.52;;;;;;;8.93;100.00;101630.47;5023620;28;20484;-72
2023/11/05 05:09:39;;;;;;;24.13;17.95;;;;;;;9.03;100.00;101599.19;5020923;28;20112;-73
2023/11/05 05:12:05;;;;;;;32.13;18.83;;;;;;;8.79;100.00;101605.84;5023147;28;20581;-73
2023/11/05 05:14:30;;;;;;;29.23;16.52;;;;;;;8.52;100.00;101576.97;5009497;28;20046;-73
2023/11/05 05:16:56;;;;;;;23.33;15.40;;;;;;;8.68;100.00;101621.84;5022136;28;20033;-73
2023/11/05 05:19:21;;;;;;;21.10;16.05;;;;;;;8.48;100.00;101575.25;5022878;28;20072;-73
2023/11/05 05:21:47;;;;;;;20.50;14.90;;;;;;;8.44;100.00;101581.13;5012253;28;20026;-72
2023/11/05 05:24:12;;;;;;;19.17;12.70;;;;;;;8.42;100.00;101575.19;5023811;28;20021;-73
2023/11/05 05:26:38;;;;;;;18.65;13.35;;;;;;;8.95;100.00;101651.59;5020369;28;20113;-73
2023/11/05 05:29:04;;;;;;;17.23;12.23;;;;;;;9.16;100.00;101664.38;5016914;28;20048;-73
2023/11/05 05:31:32;;;;;;;15.93;11.10;;;;;;;9.17;100.00;101680.47;5019696;28;20037;-74
2023/11/05 05:33:59;;;;;;;14.25;10.60;;;;;;;9.70;100.00;101663.75;5011619;28;20642;-71
2023/11/05 05:36:25;;;;;;;14.38;10.40;;;;;;;10.90;100.00;101698.59;5019200;28;20485;-73
2023/11/05 05:38:52;;;;;;;12.23;9.25;;;;;;;10.05;100.00;101704.47;5020186;28;20092;-72
2023/11/05 05:41:18;;;;;;;9.65;7.07;;;;;;;9.54;100.00;101649.31;5023490;28;20038;-73
2023/11/05 05:43:44;;;;;;;11.52;7.05;;;;;;;12.44;100.00;101801.66;5023082;28;20411;-72
2023/11/05 05:46:16;;;;;;;9.27;7.03;;;;;;;12.32;100.00;101763.47;5018514;28;20034;-72
2023/11/05 05:48:41;;;;;;;9.93;7.03;;;;;;;15.93;100.00;102018.47;5020255;28;20492;-72
2023/11/05 05:51:09;;;;;;;10.00;6.53;;;;;;;16.07;100.00;101985.72;5018079;28;20025;-73
2023/11/05 05:53:35;;;;;;;10.07;6.63;;;;;;;15.02;100.00;101976.28;5019868;28;20022;-73
2023/11/05 05:56:00;;;;;;;7.50;6.43;;;;;;;15.92;100.00;101955.22;5018144;28;20052;-73
2023/11/05 05:58:26;;;;;;;8.60;6.22;;;;;;;18.70;100.00;102084.28;5020901;28;20439;-73
2023/11/05 06:00:52;;;;;;;11.18;6.85;;;;;;;18.77;100.00;102038.56;5018588;28;20030;-73
2023/11/05 06:03:17;;;;;;;9.85;7.60;;;;;;;18.05;100.00;101912.66;5004339;28;20033;-73
2023/11/05 06:05:43;;;;;;;12.75;8.70;;;;;;;16.61;100.00;101766.38;5016937;28;20503;-73
2023/11/05 06:08:09;;;;;;;14.00;9.40;;;;;;;16.54;100.00;101702.38;5011138;28;20041;-73
2023/11/05 06:10:34;;;;;;;13.90;9.90;;;;;;;18.86;100.00;101801.97;5009245;28;20065;-73
2023/11/05 06:13:00;;;;;;;13.88;10.20;;;;;;;19.81;100.00;101707.44;5022372;28;20025;-74
2023/11/05 06:15:25;;;;;;;10.98;8.45;;;;;;;18.94;100.00;101636.72;5018824;28;20111;-75
2023/11/05 06:17:51;;;;;;;10.68;7.15;;;;;;;19.65;100.00;101534.25;5018814;28;20021;-73
2023/11/05 06:20:16;;;;;;;8.50;6.55;;;;;;;16.54;100.00;101287.19;5022143;28;20412;-74
2023/11/05 06:22:42;;;;;;;7.50;6.30;;;;;;;16.43;100.00;101123.22;5006045;28;20030;-73
2023/11/05 06:25:09;;;;;;;8.00;6.10;;;;;;;18.19;100.00;101161.25;5014833;28;20034;-74
2023/11/05 06:27:35;;;;;;;7.43;5.75;;;;;;;16.25;100.00;101094.72;5019284;28;20033;-73
2023/11/05 06:30:03;;;;;;;7.97;6.45;;;;;;;16.68;100.00;101123.22;5016906;28;20041;-73
2023/11/05 06:32:29;;;;;;;11.73;8.13;;;;;;;15.47;100.00;100968.22;5025793;28;20022;-73
2023/11/05 06:34:54;;;;;;;8.35;6.85;;;;;;;18.01;100.00;101103.63;5016687;28;20030;-73
2023/11/05 06:37:19;;;;;;;8.18;6.80;;;;;;;17.06;100.00;100963.41;5017396;28;20061;-73
2023/11/05 06:39:45;;;;;;;8.05;6.45;;;;;;;14.03;100.00;100780.63;5017186;28;20033;-73
2023/11/05 06:42:10;;;;;;;6.22;5.60;;;;;;;13.21;100.00;100856.94;5014163;28;20477;-73
2023/11/05 06:44:36;;;;;;;7.15;5.63;;;;;;;12.56;100.00;100827.00;5018065;28;20040;-73
2023/11/05 06:47:01;;;;;;;7.70;5.72;;;;;;;12.63;100.00;100939.09;5009133;28;20038;-73
2023/11/05 06:49:26;;;;;;;6.65;5.32;;;;;;;12.36;100.00;100924.34;5017854;28;20040;-73
2023/11/05 06:51:52;;;;;;;6.53;5.20;;;;;;;12.02;100.00;100948.81;5013611;28;20416;-75
2023/11/05 06:54:17;;;;;;;5.70;5.10;;;;;;;12.41;100.00;101044.13;5015653;28;20477;-72
2023/11/05 06:56:43;;;;;;;6.85;4.85;;;;;;;12.62;100.00;101093.03;5017303;28;20034;-73
2023/11/05 06:59:08;;;;;;;9.32;7.10;;;;;;;12.80;100.00;101150.53;5024677;28;20110;-73
2023/11/05 07:01:34;;;;;;;7.57;6.22;;;;;;;12.54;100.00;101183.34;5024636;28;20455;-73
2023/11/05 07:03:59;;;;;;;7.65;6.10;;;;;;;12.19;100.00;101154.16;5024251;28;20033;-73
2023/11/05 07:06:26;;;;;;;6.40;5.63;;;;;;;12.40;100.00;101236.28;5027234;28;20109;-73
2023/11/05 07:08:52;;;;;;;7.97;6.30;;;;;;;11.64;100.00;101137.94;5021740;28;20025;-75
2023/11/05 07:11:17;;;;;;;7.47;5.88;;;;;;;11.82;100.00;101242.19;5021278;28;20032;-73
2023/11/05 07:13:43;;;;;;;9.02;6.85;;;;;;;12.56;100.00;101388.22;5019084;28;20424;-73
2023/11/05 07:16:09;;;;;;;7.25;5.82;;;;;;;12.44;100.00;101424.94;5021466;28;20032;-72
2023/11/05 07:18:34;;;;;;;10.00;5.82;;;;;;;12.35;100.00;101426.75;5023189;28;20109;-75
2023/11/05 07:21:00;;;;;;;7.55;5.95;;;;;;;12.69;100.00;101522.44;5012462;28;20052;-74
2023/11/05 07:23:26;;;;;;;7.63;5.68;;;;;;;13.22;100.00;101583.09;5020689;28;20480;-76
2023/11/05 07:25:51;;;;;;;6.95;5.55;;;;;;;12.86;100.00;101526.50;5022757;28;20099;-73
2023/11/05 07:28:16;;;;;;;7.63;5.47;;;;;;;12.97;100.00;101547.59;5023897;28;20084;-72
2023/11/05 07:30:42;;;;;;;6.15;4.65;;;;;;;12.74;100.00;101525.78;5019948;28;20488;-72
2023/11/05 07:33:10;;;;;;;6.60;5.13;;;;;;;12.95;100.00;101562.09;5019735;28;22331;-72
2023/11/05 07:35:36;;;;;;;6.72;5.22;;;;;;;13.29;100.00;101605.97;5017790;28;20099;-72
2023/11/05 07:38:02;;;;;;;6.85;4.53;;;;;;;13.40;100.00;101619.47;5018731;28;20049;-73
2023/11/05 07:40:27;;;;;;;5.70;4.70;;;;;;;13.84;100.00;101659.75;5021926;28;20037;-72
2023/11/05 07:42:53;;;;;;;6.47;4.50;;;;;;;13.65;100.00;101641.25;5022521;28;20030;-75
2023/11/05 07:45:19;;;;;;;6.78;4.57;;;;;;;13.62;100.00;101651.53;5020571;28;20475;-73
2023/11/05 07:47:45;;;;;;;6.60;4.65;;;;;;;13.60;100.00;101653.28;5007679;28;20034;-73
2023/11/05 07:50:12;;;;;;;6.07;4.63;;;;;;;13.69;100.00;101695.75;5023892;28;20413;-74
2023/11/05 07:52:40;;;;;;;5.72;4.00;;;;;;;13.58;100.00;101666.94;5016264;28;20512;-74
2023/11/05 07:55:07;;;;;;;6.93;3.90;;;;;;;13.01;100.00;101589.28;5010723;28;20033;-73
2023/11/05 07:57:33;;;;;;;6.70;4.35;;;;;;;13.90;100.00;101716.75;5008484;28;20037;-73
2023/11/05 07:59:59;;;;;;;5.93;4.20;;;;;;;13.43;100.00;101651.81;5010868;28;20033;-73
2023/11/05 08:02:25;;;;;;;6.07;4.18;;;;;;;13.42;100.00;101643.28;5010267;28;20030;-73
2023/11/05 08:04:50;;;;;;;4.85;3.90;;;;;;;13.76;100.00;101705.88;5010535;28;20397;-73
2023/11/05 08:07:15;;;;;;;5.65;4.35;;;;;;;14.41;100.00;101774.06;5023607;28;20443;-73
2023/11/05 08:09:41;;;;;;;5.43;4.10;;;;;;;14.24;100.00;101764.91;5018419;28;20026;-73
2023/11/05 08:12:06;;;;;;;7.03;4.10;;;;;;;14.54;100.00;101784.94;5010133;28;20113;-73
2023/11/05 08:14:32;;;;;;;5.03;3.85;;;;;;;13.79;100.00;101702.41;5019188;28;20496;-73
2023/11/05 08:16:57;;;;;;;5.18;3.60;;;;;;;14.18;100.00;101736.84;5022114;28;20618;-73
2023/11/05 08:19:22;;;;;;;4.00;3.33;;;;;;;14.44;100.00;101796.22;5025387;28;20048;-73
2023/11/05 08:21:48;;;;;;;6.10;3.30;;;;;;;14.64;100.00;101795.03;5009712;28;20041;-73
2023/11/05 08:24:13;;;;;;;4.72;3.30;;;;;;;15.18;100.00;101824.03;5024427;28;20481;-73
2023/11/05 08:26:39;;;;;;;3.70;2.95;;;;;;;14.56;100.00;101724.31;5012149;28;20156;-73
2023/11/05 08:29:04;;;;;;;7.13;3.60;;;;;;;14.54;100.00;101724.34;5020774;28;20061;-73
2023/11/05 08:31:30;;;;;;;7.55;3.47;;;;;;;15.31;100.00;101816.97;5011085;28;20116;-73
2023/11/05 08:33:55;;;;;;;3.60;2.60;;;;;;;14.99;100.00;101756.03;5018958;28;20171;-73
2023/11/05 08:36:21;;;;;;;6.57;3.22;;;;;;;15.22;100.00;101771.84;5018520;28;20398;-73
2023/11/05 08:38:46;;;;;;;3.40;2.50;;;;;;;15.29;100.00;101790.53;5011644;28;20033;-73
2023/11/05 08:41:12;;;;;;;3.53;2.58;;;;;;;15.58;100.00;101804.53;5022578;28;20049;-75
2023/11/05 08:43:37;;;;;;;4.75;3.05;;;;;;;14.93;100.00;101698.94;5019241;28;20460;-73
2023/11/05 08:46:03;;;;;;;4.38;2.40;;;;;;;15.53;100.00;101749.91;5017933;28;20408;-73
2023/11/05 08:48:28;;;;;;;6.38;3.00;;;;;;;15.49;100.00;101724.34;5019836;28;20053;-73
2023/11/05 08:50:54;;;;;;;3.53;2.80;;;;;;;15.84;100.00;101767.25;5007102;28;20121;-73
2023/11/05 08:53:23;;;;;;;3.95;2.70;;;;;;;15.69;100.00;101691.47;5010257;28;20030;-73
2023/11/05 08:55:48;;;;;;;3.90;2.78;;;;;;;15.45;100.00;101656.94;5023836;28;20033;-73
2023/11/05 08:58:15;;;;;;;3.75;2.35;;;;;;;15.67;100.00;101653.94;5011628;28;20087;-73
2023/11/05 09:00:40;;;;;;;2.92;1.90;;;;;;;15.83;100.00;101629.59;5022289;28;20033;-73
2023/11/05 09:03:06;;;;;;;5.28;2.15;;;;;;;15.90;100.00;101639.72;5010434;28;20033;-73
2023/11/05 09:05:32;;;;;;;4.60;2.38;;;;;;;15.95;100.00;101578.84;5025526;28;20044;-72
2023/11/05 09:07:58;;;;;;;3.20;2.15;;;;;;;16.39;100.00;101654.75;5012040;28;20037;-73
2023/11/05 09:10:26;;;;;;;3.38;2.08;;;;;;;16.60;100.00;101669.66;5021585;28;20962;-72
2023/11/05 09:12:52;;;;;;;4.75;2.22;;;;;;;16.23;100.00;101527.69;5023436;28;20030;-72
2023/11/05 09:15:17;;;;;;;3.78;1.95;;;;;;;16.92;100.00;101573.72;5023728;28;20034;-73
2023/11/05 09:17:43;;;;;;;2.88;1.80;;;;;;;16.60;100.00;101537.84;5009547;28;20033;-72
2023/11/05 09:20:10;;;;;;;3.45;2.10;;;;;;;16.66;100.00;101515.38;5019889;28;20507;-73
2023/11/05 09:22:37;;;;;;;2.50;1.85;;;;;;;16.61;100.00;101471.03;5023202;28;20048;-74
2023/11/05 09:25:04;;;;;;;2.40;1.40;;;;;;;16.65;100.00;101444.38;5019427;28;20030;-72
2023/11/05 09:27:31;;;;;;;3.97;1.60;;;;;;;16.78;100.00;101396.03;5010142;28;20083;-72
2023/11/05 09:29:57;;;;;;;3.13;1.60;;;;;;;16.79;100.00;101318.09;5009013;28;20033;-73
2023/11/05 09:32:22;;;;;;;3.33;1.67;;;;;;;17.03;100.00;101325.84;5018775;28;20025;-73
2023/11/05 09:34:47;;;;;;;3.22;1.60;;;;;;;17.18;100.00;101327.06;5019884;28;20029;-73
2023/11/05 09:37:13;;;;;;;5.00;1.63;;;;;;;16.78;100.00;101294.13;5015349;28;20033;-72
2023/11/05 09:39:39;;;;;;;2.20;1.40;;;;;;;16.93;100.00;101279.94;5019972;28;20104;-73
2023/11/05 09:42:05;;;;;;;2.90;1.70;;;;;;;17.80;100.00;101317.22;5020161;28;20069;-73
2023/11/05 09:44:31;;;;;;;4.63;2.10;;;;;;;17.21;100.00;101199.25;5019215;28;20393;-72
2023/11/05 09:46:59;;;;;;;7.97;2.03;;;;;;;16.52;100.00;101134.09;5022908;28;20091;-73
2023/11/05 09:49:24;;;;;;;1.77;1.30;;;;;;;17.16;100.00;101169.47;5019047;28;20029;-73
2023/11/05 09:51:54;;;;;;;4.15;1.20;;;;;;;17.71;100.00;101155.44;5011036;28;20121;-72
2023/11/05 09:54:19;;;;;;;2.80;1.92;;;;;;;17.66;100.00;101119.63;5015165;28;20022;-72
2023/11/05 09:56:45;;;;;;;3.55;1.33;;;;;;;17.20;100.00;101102.50;5023732;28;20037;-73
2023/11/05 09:59:11;;;;;;;2.92;1.60;;;;;;;17.84;100.00;101124.06;5020830;28;20022;-72
2023/11/05 10:01:36;;;;;;;2.53;1.38;;;;;;;18.10;100.00;101092.13;5019524;28;20138;-73
2023/11/05 10:04:06;;;;;;;4.93;1.60;;;;;;;18.57;100.00;101096.16;5008647;28;20065;-73
2023/11/05 10:06:33;;;;;;;1.88;1.40;;;;;;;17.65;100.00;100965.38;5016620;28;20583;-74
2023/11/05 10:08:59;;;;;;;2.63;1.50;;;;;;;18.02;100.00;100957.78;5007022;28;20462;-74
2023/11/05 10:11:26;;;;;;;3.95;1.35;;;;;;;18.10;100.00;100905.03;5013917;28;20132;-74
2023/11/05 10:13:51;;;;;;;6.57;1.40;;;;;;;18.00;100.00;100892.66;5013440;28;20175;-73
2023/11/05 10:16:20;;;;;;;3.05;0.90;;;;;;;18.30;100.00;100844.97;5019619;28;20108;-73
2023/11/05 10:18:52;;;;;;;2.72;1.30;;;;;;;16.85;100.00;100722.75;5015054;28;20496;-73
2023/11/05 10:21:17;;;;;;;3.05;1.50;;;;;;;17.57;100.00;100801.06;5017474;28;20037;-73
2023/11/05 10:23:54;;;;;;;4.70;1.60;;;;;;;18.00;100.00;100780.25;5007373;28;20048;-73
2023/11/05 10:26:33;;;;;;;3.33;1.40;;;;;;;18.51;100.00;100786.47;5017241;28;20032;-73
2023/11/05 10:29:00;;;;;;;2.67;1.40;;;;;;;18.34;100.00;100732.34;5013968;28;20409;-72
2023/11/05 10:31:27;;;;;;;4.93;1.73;;;;;;;18.73;100.00;100720.97;5019697;28;20033;-73
2023/11/05 10:33:54;;;;;;;2.63;1.40;;;;;;;18.41;100.00;100667.59;5018594;28;20037;-73
2023/11/05 10:36:20;;;;;;;2.88;1.40;;;;;;;18.49;100.00;100660.38;5019940;28;20040;-73
2023/11/05 10:38:48;;;;;;;1.98;1.10;;;;;;;18.67;100.00;100661.19;5023397;28;20025;-72
2023/11/05 10:41:15;;;;;;;3.90;1.40;;;;;;;18.41;100.00;100589.50;5016915;28;20030;-74
2023/11/05 10:43:41;;;;;;;2.83;1.40;;;;;;;18.85;100.00;100661.09;5022606;28;20037;-74
2023/11/05 10:46:07;;;;;;;3.53;1.20;;;;;;;18.84;100.00;100591.59;5016963;28;20022;-72
2023/11/05 10:48:34;;;;;;;1.75;1.20;;;;;;;18.54;100.00;100555.34;5015505;28;20113;-74
2023/11/05 10:51:01;;;;;;;3.35;1.38;;;;;;;18.54;100.00;100539.91;5007803;28;20025;-73
2023/11/05 10:53:27;;;;;;;2.75;1.50;;;;;;;19.19;100.00;100539.00;5004729;28;20088;-74
2023/11/05 10:55:53;;;;;;;3.13;1.42;;;;;;;19.18;100.00;100536.50;5008042;28;20029;-74
2023/11/05 10:58:21;;;;;;;2.53;1.38;;;;;;;18.57;100.00;100531.19;5019851;28;20040;-73
2023/11/05 11:00:57;;;;;;;4.47;1.50;;;;;;;19.04;100.00;100569.00;5007273;28;20645;-73
2023/11/05 11:03:25;;;;;;;3.70;1.30;;;;;;;19.64;100.00;100605.31;5020679;28;20037;-73
2023/11/05 11:05:54;;;;;;;2.67;1.30;;;;;;;18.39;100.00;100569.00;5019521;28;20460;-72
2023/11/05 11:08:27;;;;;;;3.38;1.20;;;;;;;19.73;100.00;100782.88;5008440;28;20057;-72
2023/11/05 11:11:06;;;;;;;5.85;1.27;;;;;;;19.51;100.00;100919.09;5016382;28;20167;-73
2023/11/05 11:13:32;;;;;;;3.55;1.25;;;;;;;19.24;100.00;100964.22;5006221;28;20497;-72